createdAt,value
2022-12-15T00:00:39.971Z,95896.72
2022-12-15T00:02:00.109Z,95889.59
2022-12-15T00:03:25.240Z,95886.59
2022-12-15T00:04:45.535Z,95881.25
2022-12-15T00:06:05.470Z,95879.25
2022-12-15T00:07:25.298Z,95874.38
2022-12-15T00:08:45.157Z,95888.91
2022-12-15T00:10:05.043Z,95899.94
2022-12-15T00:11:25.078Z,95883.47
2022-12-15T00:12:44.918Z,95879.38
2022-12-15T00:14:05.117Z,95883.53
2022-12-15T00:15:25.970Z,95878.19
2022-12-15T00:16:45.915Z,95868.63
2022-12-15T00:18:05.624Z,95864.41
2022-12-15T00:19:26.039Z,95865.94
2022-12-15T00:20:46.186Z,95870.84
2022-12-15T00:22:06.319Z,95869.72
2022-12-15T00:23:31.045Z,95875.53
2022-12-15T00:24:51.488Z,95869.16
2022-12-15T00:26:11.985Z,95863.94
2022-12-15T00:27:31.716Z,95854.81
2022-12-15T00:28:51.561Z,95859.47
2022-12-15T00:30:11.674Z,95854.13
2022-12-15T00:31:31.570Z,95852.56
2022-12-15T00:32:51.825Z,95853.34
2022-12-15T00:34:11.798Z,95846.22
2022-12-15T00:35:32.897Z,95860.34
2022-12-15T00:36:52.656Z,95870.69
2022-12-15T00:38:12.950Z,95869.91
2022-12-15T00:39:14.603Z,95869.25
2022-12-15T00:40:16.659Z,95875.00
2022-12-15T00:41:18.665Z,95871.91
2022-12-15T00:42:20.180Z,95862.78
2022-12-15T00:43:21.654Z,95873.66
2022-12-15T00:44:24.047Z,95873.19
2022-12-15T00:45:45.530Z,95871.38
2022-12-15T00:46:55.754Z,95870.38
2022-12-15T00:47:57.338Z,95879.81
2022-12-15T00:48:59.339Z,95877.56
2022-12-15T00:50:19.164Z,95879.59
2022-12-15T00:51:21.057Z,95898.22
2022-12-15T00:52:40.935Z,95894.75
2022-12-15T00:54:01.490Z,95890.06
2022-12-15T00:55:22.942Z,95883.38
2022-12-15T00:56:43.293Z,95875.81
2022-12-15T00:58:03.540Z,95867.56
2022-12-15T00:59:23.833Z,95860.47
2022-12-15T01:00:44.686Z,95859.81
2022-12-15T01:02:05.180Z,95859.59
2022-12-15T01:03:30.964Z,95858.03
2022-12-15T01:04:51.588Z,95875.63
2022-12-15T01:06:11.361Z,95881.16
2022-12-15T01:07:32.292Z,95890.94
2022-12-15T01:08:52.188Z,95898.44
2022-12-15T01:10:11.995Z,95898.44
2022-12-15T01:11:31.846Z,95895.41
2022-12-15T01:12:52.142Z,95891.31
2022-12-15T01:14:12.510Z,95884.84
2022-12-15T01:15:32.780Z,95879.94
2022-12-15T01:16:53.100Z,95872.38
2022-12-15T01:18:13.008Z,95860.34
2022-12-15T01:19:33.424Z,95879.81
2022-12-15T01:20:34.943Z,95864.66
2022-12-15T01:21:36.426Z,95865.78
2022-12-15T01:22:38.832Z,95863.88
2022-12-15T01:23:41.268Z,95866.22
2022-12-15T01:24:42.846Z,95869.31
2022-12-15T01:25:44.429Z,95870.88
2022-12-15T01:26:51.173Z,95856.41
2022-12-15T01:27:52.843Z,95847.28
2022-12-15T01:28:54.397Z,95851.84
2022-12-15T01:29:55.933Z,95851.06
2022-12-15T01:30:57.583Z,95853.38
2022-12-15T01:31:59.257Z,95855.72
2022-12-15T01:33:00.832Z,95860.28
2022-12-15T01:34:02.457Z,95852.72
2022-12-15T01:35:08.036Z,95844.69
2022-12-15T01:36:10.571Z,95852.72
2022-12-15T01:37:12.286Z,95854.72
2022-12-15T01:38:13.820Z,95861.72
2022-12-15T01:39:16.027Z,95861.47
2022-12-15T01:40:38.818Z,95878.38
2022-12-15T01:41:40.371Z,95880.09
2022-12-15T01:42:42.042Z,95869.41
2022-12-15T01:43:43.582Z,95874.06
2022-12-15T01:44:49.664Z,95877.88
2022-12-15T01:45:56.999Z,95872.69
2022-12-15T01:46:58.689Z,95875.13
2022-12-15T01:48:08.387Z,95875.97
2022-12-15T01:49:17.457Z,95863.06
2022-12-15T01:50:19.769Z,95867.28
2022-12-15T01:51:33.591Z,95870.50
2022-12-15T01:52:35.330Z,95863.16
2022-12-15T01:53:42.072Z,95869.13
2022-12-15T01:54:51.992Z,95858.41
2022-12-15T01:55:54.690Z,95860.13
2022-12-15T01:57:01.673Z,95866.25
2022-12-15T01:58:06.916Z,95871.53
2022-12-15T01:59:11.798Z,95882.50
2022-12-15T02:00:14.605Z,95883.44
2022-12-15T02:01:16.242Z,95890.78
2022-12-15T02:02:21.496Z,95900.31
2022-12-15T02:03:23.924Z,95901.22
2022-12-15T02:04:25.555Z,95904.75
2022-12-15T02:05:29.264Z,95904.38
2022-12-15T02:06:30.861Z,95901.22
2022-12-15T02:07:32.376Z,95912.41
2022-12-15T02:08:34.013Z,95903.97
2022-12-15T02:09:35.523Z,95905.25
2022-12-15T02:11:10.538Z,95922.41
2022-12-15T02:12:21.536Z,95920.84
2022-12-15T02:13:39.345Z,95921.72
2022-12-15T02:14:53.065Z,95918.78
2022-12-15T02:16:07.118Z,95905.41
2022-12-15T02:17:14.347Z,95912.31
2022-12-15T02:18:41.966Z,95917.66
2022-12-15T02:20:16.158Z,95922.22
2022-12-15T02:21:38.673Z,95929.66
2022-12-15T02:22:49.397Z,95921.03
2022-12-15T02:24:15.266Z,95933.47
2022-12-15T02:25:44.109Z,95937.19
2022-12-15T02:27:15.608Z,95945.81
2022-12-15T02:28:23.005Z,95942.00
2022-12-15T02:29:30.457Z,95944.69
2022-12-15T02:31:11.684Z,95934.31
2022-12-15T02:32:19.358Z,95930.72
2022-12-15T02:33:27.400Z,95926.94
2022-12-15T02:34:40.499Z,95934.50
2022-12-15T02:35:54.221Z,95945.00
2022-12-15T02:37:06.985Z,95946.31
2022-12-15T02:38:09.781Z,95937.63
2022-12-15T02:39:14.710Z,95940.72
2022-12-15T02:40:16.303Z,95946.16
2022-12-15T02:41:40.835Z,95948.13
2022-12-15T02:42:51.002Z,95948.81
2022-12-15T02:43:52.653Z,95944.31
2022-12-15T02:44:56.332Z,95941.03
2022-12-15T02:46:22.830Z,95947.34
2022-12-15T02:47:49.191Z,95941.72
2022-12-15T02:49:02.453Z,95939.75
2022-12-15T02:50:24.281Z,95938.97
2022-12-15T02:51:48.540Z,95934.97
2022-12-15T02:52:55.684Z,95942.53
2022-12-15T02:54:05.704Z,95942.34
2022-12-15T02:55:17.325Z,95937.66
2022-12-15T02:56:37.084Z,95938.75
2022-12-15T02:58:12.682Z,95933.91
2022-12-15T02:59:23.522Z,95935.81
2022-12-15T03:00:25.060Z,95936.47
2022-12-15T03:01:26.600Z,95931.03
2022-12-15T03:02:31.332Z,95938.03
2022-12-15T03:03:36.000Z,95940.38
2022-12-15T03:04:38.426Z,95938.91
2022-12-15T03:05:39.936Z,95930.75
2022-12-15T03:06:41.826Z,95947.88
2022-12-15T03:07:43.322Z,95947.09
2022-12-15T03:08:44.811Z,95951.53
2022-12-15T03:09:46.348Z,95952.88
2022-12-15T03:10:51.265Z,95958.75
2022-12-15T03:11:52.784Z,95950.53
2022-12-15T03:12:58.892Z,95951.84
2022-12-15T03:14:00.477Z,95956.31
2022-12-15T03:15:01.980Z,95949.56
2022-12-15T03:16:03.591Z,95954.34
2022-12-15T03:17:07.543Z,95945.47
2022-12-15T03:18:09.101Z,95950.38
2022-12-15T03:19:10.818Z,95952.25
2022-12-15T03:20:13.132Z,95947.38
2022-12-15T03:21:14.688Z,95945.03
2022-12-15T03:22:16.436Z,95955.00
2022-12-15T03:23:17.950Z,95960.25
2022-12-15T03:24:19.726Z,95965.44
2022-12-15T03:25:21.282Z,95968.78
2022-12-15T03:26:22.842Z,95959.00
2022-12-15T03:27:24.366Z,95966.78
2022-12-15T03:28:25.870Z,95966.78
2022-12-15T03:29:27.500Z,95965.22
2022-12-15T03:30:29.097Z,95958.41
2022-12-15T03:31:30.759Z,95957.00
2022-12-15T03:32:32.492Z,95959.00
2022-12-15T03:33:34.678Z,95959.22
2022-12-15T03:34:36.609Z,95956.88
2022-12-15T03:35:38.131Z,95950.78
2022-12-15T03:36:39.782Z,95942.56
2022-12-15T03:37:42.931Z,95944.69
2022-12-15T03:38:44.654Z,95950.38
2022-12-15T03:39:46.277Z,95959.94
2022-12-15T03:40:47.799Z,95963.81
2022-12-15T03:41:49.458Z,95967.47
2022-12-15T03:42:51.126Z,95961.56
2022-12-15T03:43:52.718Z,95962.59
2022-12-15T03:44:54.234Z,95965.81
2022-12-15T03:45:55.893Z,95963.03
2022-12-15T03:47:02.958Z,95970.16
2022-12-15T03:48:05.348Z,95963.94
2022-12-15T03:49:07.131Z,95973.06
2022-12-15T03:50:09.674Z,95979.97
2022-12-15T03:51:11.330Z,95981.53
2022-12-15T03:52:12.874Z,95968.19
2022-12-15T03:53:14.406Z,95949.94
2022-12-15T03:54:16.012Z,95930.16
2022-12-15T03:55:18.234Z,95929.16
2022-12-15T03:56:19.918Z,95930.31
2022-12-15T03:57:21.415Z,95935.75
2022-12-15T03:58:22.973Z,95937.06
2022-12-15T03:59:24.501Z,95934.50
2022-12-15T04:00:26.977Z,95945.28
2022-12-15T04:01:36.230Z,95948.63
2022-12-15T04:02:37.915Z,95957.91
2022-12-15T04:03:39.669Z,95958.22
2022-12-15T04:04:41.301Z,95968.34
2022-12-15T04:05:42.864Z,95962.44
2022-12-15T04:06:44.429Z,95962.66
2022-12-15T04:07:46.134Z,95970.56
2022-12-15T04:08:49.710Z,95967.28
2022-12-15T04:09:51.382Z,95960.94
2022-12-15T04:10:52.922Z,95954.22
2022-12-15T04:11:54.781Z,95954.03
2022-12-15T04:13:04.659Z,95948.50
2022-12-15T04:14:06.217Z,95950.53
2022-12-15T04:15:09.212Z,95958.41
2022-12-15T04:16:14.800Z,95964.72
2022-12-15T04:17:19.591Z,95971.81
2022-12-15T04:18:21.362Z,95976.50
2022-12-15T04:19:41.620Z,95985.72
2022-12-15T04:20:43.210Z,95974.00
2022-12-15T04:21:44.778Z,95969.09
2022-12-15T04:22:48.377Z,95979.56
2022-12-15T04:24:08.441Z,95973.09
2022-12-15T04:25:34.833Z,95969.81
2022-12-15T04:26:54.749Z,95969.47
2022-12-15T04:28:14.979Z,95968.78
2022-12-15T04:29:34.885Z,95965.34
2022-12-15T04:30:55.763Z,95976.59
2022-12-15T04:32:16.799Z,95976.66
2022-12-15T04:33:38.318Z,95977.44
2022-12-15T04:34:58.945Z,95988.22
2022-12-15T04:36:19.487Z,95989.00
2022-12-15T04:37:39.465Z,95984.53
2022-12-15T04:38:59.928Z,95973.16
2022-12-15T04:40:19.810Z,95971.22
2022-12-15T04:41:41.614Z,95980.09
2022-12-15T04:43:05.664Z,95980.16
2022-12-15T04:44:26.123Z,95980.38
2022-12-15T04:45:46.957Z,95977.00
2022-12-15T04:47:07.187Z,95984.00
2022-12-15T04:48:27.497Z,95981.44
2022-12-15T04:49:47.308Z,95989.19
2022-12-15T04:51:07.131Z,95978.25
2022-12-15T04:52:27.202Z,95984.53
2022-12-15T04:53:47.390Z,95974.56
2022-12-15T04:55:07.348Z,95984.81
2022-12-15T04:56:32.705Z,95987.00
2022-12-15T04:57:53.735Z,95989.31
2022-12-15T04:59:13.812Z,96001.06
2022-12-15T05:00:34.121Z,95990.56
2022-12-15T05:01:54.160Z,95989.88
2022-12-15T05:03:18.358Z,95986.16
2022-12-15T05:04:39.231Z,95985.22
2022-12-15T05:05:59.311Z,95989.88
2022-12-15T05:07:19.799Z,95990.84
2022-12-15T05:08:39.921Z,96000.25
2022-12-15T05:10:03.234Z,96001.97
2022-12-15T05:11:24.011Z,96005.97
2022-12-15T05:12:44.448Z,96012.16
2022-12-15T05:14:04.592Z,96004.59
2022-12-15T05:15:25.570Z,96009.16
2022-12-15T05:16:45.922Z,96011.13
2022-12-15T05:18:06.354Z,96019.41
2022-12-15T05:19:26.390Z,96030.78
2022-12-15T05:20:49.851Z,96030.00
2022-12-15T05:22:10.469Z,96034.84
2022-12-15T05:23:31.080Z,96036.44
2022-12-15T05:24:51.103Z,96056.97
2022-12-15T05:26:10.923Z,96052.97
2022-12-15T05:27:30.779Z,96064.34
2022-12-15T05:28:50.571Z,96065.00
2022-12-15T05:30:10.463Z,96071.06
2022-12-15T05:31:31.027Z,96069.50
2022-12-15T05:32:33.287Z,96076.41
2022-12-15T05:33:35.106Z,96077.28
2022-12-15T05:34:38.276Z,96091.09
2022-12-15T05:35:39.855Z,96085.53
2022-12-15T05:36:41.343Z,96083.09
2022-12-15T05:37:42.836Z,96081.53
2022-12-15T05:38:44.392Z,96080.00
2022-12-15T05:39:46.309Z,96084.22
2022-12-15T05:40:47.841Z,96085.59
2022-12-15T05:41:51.051Z,96096.69
2022-12-15T05:42:52.589Z,96098.03
2022-12-15T05:43:54.209Z,96098.03
2022-12-15T05:44:55.767Z,96102.50
2022-12-15T05:45:57.357Z,96102.09
2022-12-15T05:46:58.969Z,96101.97
2022-12-15T05:48:00.650Z,96096.97
2022-12-15T05:49:11.430Z,96098.50
2022-12-15T05:50:12.944Z,96109.66
2022-12-15T05:51:15.155Z,96110.44
2022-12-15T05:52:16.916Z,96112.31
2022-12-15T05:53:18.453Z,96115.44
2022-12-15T05:54:20.246Z,96128.34
2022-12-15T05:55:21.742Z,96119.00
2022-12-15T05:56:23.270Z,96125.91
2022-12-15T05:57:24.820Z,96128.59
2022-12-15T05:58:26.334Z,96118.34
2022-12-15T05:59:27.889Z,96127.91
2022-12-15T06:00:29.440Z,96117.75
2022-12-15T06:01:32.060Z,96126.91
2022-12-15T06:02:33.704Z,96126.13
2022-12-15T06:03:35.973Z,96125.44
2022-12-15T06:04:37.549Z,96128.13
2022-12-15T06:05:39.695Z,96126.78
2022-12-15T06:06:41.919Z,96124.25
2022-12-15T06:07:43.500Z,96120.34
2022-12-15T06:08:45.233Z,96125.25
2022-12-15T06:09:47.165Z,96121.47
2022-12-15T06:10:54.931Z,96118.03
2022-12-15T06:11:56.439Z,96113.88
2022-12-15T06:12:57.946Z,96126.13
2022-12-15T06:13:59.613Z,96131.16
2022-12-15T06:15:01.190Z,96131.81
2022-12-15T06:16:10.014Z,96141.25
2022-12-15T06:17:11.600Z,96138.47
2022-12-15T06:18:13.189Z,96137.47
2022-12-15T06:19:14.690Z,96144.38
2022-12-15T06:20:16.293Z,96152.41
2022-12-15T06:21:20.500Z,96148.81
2022-12-15T06:22:22.025Z,96148.34
2022-12-15T06:23:23.554Z,96152.91
2022-12-15T06:24:25.961Z,96144.78
2022-12-15T06:25:27.486Z,96150.31
2022-12-15T06:26:39.479Z,96151.31
2022-12-15T06:27:40.971Z,96148.28
2022-12-15T06:28:42.481Z,96156.06
2022-12-15T06:29:45.196Z,96164.75
2022-12-15T06:30:46.687Z,96164.03
2022-12-15T06:31:48.270Z,96167.47
2022-12-15T06:32:50.058Z,96169.78
2022-12-15T06:33:59.279Z,96180.69
2022-12-15T06:35:03.123Z,96181.56
2022-12-15T06:36:11.178Z,96186.22
2022-12-15T06:37:12.982Z,96185.88
2022-12-15T06:38:15.042Z,96193.84
2022-12-15T06:39:17.048Z,96180.00
2022-12-15T06:40:18.570Z,96181.56
2022-12-15T06:41:22.227Z,96184.69
2022-12-15T06:42:23.795Z,96185.09
2022-12-15T06:43:26.940Z,96184.88
2022-12-15T06:44:28.484Z,96185.75
2022-12-15T06:45:30.063Z,96183.50
2022-12-15T06:46:34.909Z,96181.94
2022-12-15T06:47:36.622Z,96192.97
2022-12-15T06:48:38.298Z,96190.34
2022-12-15T06:49:39.834Z,96196.06
2022-12-15T06:50:41.546Z,96197.03
2022-12-15T06:51:44.186Z,96199.91
2022-12-15T06:52:45.895Z,96200.69
2022-12-15T06:53:53.101Z,96190.06
2022-12-15T06:54:54.674Z,96192.06
2022-12-15T06:56:01.882Z,96199.84
2022-12-15T06:57:03.628Z,96193.84
2022-12-15T06:58:05.131Z,96198.50
2022-12-15T06:59:07.429Z,96200.06
2022-12-15T07:00:09.936Z,96198.94
2022-12-15T07:01:11.577Z,96201.63
2022-12-15T07:02:28.466Z,96202.47
2022-12-15T07:03:31.321Z,96209.41
2022-12-15T07:04:33.727Z,96220.56
2022-12-15T07:05:35.435Z,96219.09
2022-12-15T07:06:38.806Z,96224.28
2022-12-15T07:07:40.463Z,96225.94
2022-12-15T07:08:43.194Z,96223.25
2022-12-15T07:09:44.726Z,96229.38
2022-12-15T07:10:46.301Z,96226.28
2022-12-15T07:11:50.386Z,96230.88
2022-12-15T07:12:51.948Z,96227.31
2022-12-15T07:13:54.386Z,96222.25
2022-12-15T07:14:55.911Z,96235.56
2022-12-15T07:16:02.274Z,96231.94
2022-12-15T07:17:03.840Z,96224.28
2022-12-15T07:18:06.655Z,96220.53
2022-12-15T07:19:12.636Z,96224.84
2022-12-15T07:20:14.186Z,96222.19
2022-12-15T07:21:15.798Z,96226.09
2022-12-15T07:22:17.326Z,96231.63
2022-12-15T07:23:19.467Z,96232.31
2022-12-15T07:24:24.675Z,96232.41
2022-12-15T07:25:26.822Z,96230.16
2022-12-15T07:26:28.706Z,96235.41
2022-12-15T07:27:30.340Z,96236.66
2022-12-15T07:28:32.282Z,96243.94
2022-12-15T07:29:34.210Z,96255.03
2022-12-15T07:30:38.912Z,96247.94
2022-12-15T07:31:41.280Z,96244.81
2022-12-15T07:32:44.261Z,96247.06
2022-12-15T07:33:52.596Z,96249.94
2022-12-15T07:34:54.449Z,96244.59
2022-12-15T07:35:56.097Z,96243.91
2022-12-15T07:36:57.749Z,96248.03
2022-12-15T07:38:00.285Z,96245.91
2022-12-15T07:39:02.488Z,96251.50
2022-12-15T07:40:05.461Z,96246.47
2022-12-15T07:41:08.332Z,96244.34
2022-12-15T07:42:09.945Z,96243.91
2022-12-15T07:43:11.599Z,96243.72
2022-12-15T07:44:14.770Z,96241.25
2022-12-15T07:45:16.451Z,96241.25
2022-12-15T07:46:18.504Z,96246.50
2022-12-15T07:47:20.178Z,96258.53
2022-12-15T07:48:21.973Z,96254.16
2022-12-15T07:49:23.762Z,96259.75
2022-12-15T07:50:25.332Z,96257.06
2022-12-15T07:51:27.769Z,96259.88
2022-12-15T07:52:29.707Z,96260.41
2022-12-15T07:53:34.364Z,96249.94
2022-12-15T07:54:36.473Z,96251.06
2022-12-15T07:56:05.652Z,96254.41
2022-12-15T07:57:00.191Z,96255.28
2022-12-15T07:58:01.707Z,96268.44
2022-12-15T07:59:03.999Z,96271.44
2022-12-15T08:00:06.193Z,96270.00
2022-12-15T08:01:12.298Z,96270.88
2022-12-15T08:02:14.520Z,96278.22
2022-12-15T08:03:16.403Z,96282.56
2022-12-15T08:04:18.630Z,96283.34
2022-12-15T08:05:20.455Z,96285.25
2022-12-15T08:06:22.175Z,96290.16
2022-12-15T08:07:23.765Z,96286.38
2022-12-15T08:08:25.383Z,96283.25
2022-12-15T08:09:26.993Z,96293.16
2022-12-15T08:10:28.536Z,96281.56
2022-12-15T08:11:34.623Z,96289.16
2022-12-15T08:12:36.178Z,96292.56
2022-12-15T08:15:01.641Z,96296.09
2022-12-15T08:16:03.296Z,96302.31
2022-12-15T08:17:05.678Z,96306.25
2022-12-15T08:18:09.076Z,96297.81
2022-12-15T08:19:13.321Z,96294.22
2022-12-15T08:20:15.220Z,96292.47
2022-12-15T08:21:17.250Z,96290.69
2022-12-15T08:22:19.716Z,96296.06
2022-12-15T08:23:21.266Z,96295.13
2022-12-15T08:24:22.803Z,96300.28
2022-12-15T08:25:25.202Z,96294.72
2022-12-15T08:26:30.589Z,96296.50
2022-12-15T08:27:32.909Z,96290.69
2022-12-15T08:28:36.216Z,96296.97
2022-12-15T08:29:53.198Z,96297.25
2022-12-15T08:30:54.754Z,96298.94
2022-12-15T08:31:56.443Z,96287.47
2022-12-15T08:32:58.030Z,96288.25
2022-12-15T08:34:01.600Z,96290.47
2022-12-15T08:35:03.247Z,96284.25
2022-12-15T08:36:07.401Z,96285.03
2022-12-15T08:37:09.126Z,96290.94
2022-12-15T08:38:10.666Z,96282.31
2022-12-15T08:39:12.200Z,96294.25
2022-12-15T08:40:14.044Z,96295.38
2022-12-15T08:41:23.322Z,96289.34
2022-12-15T08:42:24.928Z,96296.47
2022-12-15T08:43:26.470Z,96300.03
2022-12-15T08:44:28.007Z,96296.81
2022-12-15T08:45:30.054Z,96294.47
2022-12-15T08:46:34.407Z,96296.38
2022-12-15T08:47:36.054Z,96298.59
2022-12-15T08:48:37.624Z,96300.06
2022-12-15T08:49:40.048Z,96295.13
2022-12-15T08:50:45.862Z,96305.38
2022-12-15T08:51:50.076Z,96303.47
2022-12-15T08:53:21.260Z,96306.72
2022-12-15T08:54:13.686Z,96302.00
2022-12-15T08:55:20.812Z,96305.47
2022-12-15T08:56:25.452Z,96308.06
2022-12-15T08:57:27.408Z,96302.59
2022-12-15T08:58:28.909Z,96307.06
2022-12-15T08:59:30.469Z,96310.06
2022-12-15T09:00:32.050Z,96309.97
2022-12-15T09:01:33.844Z,96308.97
2022-12-15T09:02:35.681Z,96305.75
2022-12-15T09:03:37.415Z,96304.06
2022-12-15T09:04:38.997Z,96305.19
2022-12-15T09:05:40.625Z,96307.44
2022-12-15T09:06:42.311Z,96304.84
2022-12-15T09:07:43.854Z,96301.16
2022-12-15T09:08:50.429Z,96296.72
2022-12-15T09:09:52.399Z,96298.72
2022-12-15T09:10:53.916Z,96303.16
2022-12-15T09:11:55.501Z,96289.56
2022-12-15T09:12:57.093Z,96290.78
2022-12-15T09:13:59.230Z,96288.88
2022-12-15T09:15:00.886Z,96292.69
2022-12-15T09:16:13.212Z,96298.47
2022-12-15T09:17:15.891Z,96300.47
2022-12-15T09:18:17.468Z,96295.13
2022-12-15T09:19:19.221Z,96298.44
2022-12-15T09:20:20.960Z,96298.31
2022-12-15T09:21:26.129Z,96296.88
2022-12-15T09:22:28.168Z,96293.81
2022-12-15T09:23:30.547Z,96293.81
2022-12-15T09:24:35.349Z,96295.06
2022-12-15T09:25:37.194Z,96295.28
2022-12-15T09:26:38.836Z,96294.13
2022-12-15T09:27:40.785Z,96299.72
2022-12-15T09:28:43.179Z,96292.06
2022-12-15T09:29:44.746Z,96299.63
2022-12-15T09:30:46.458Z,96302.63
2022-12-15T09:31:48.016Z,96302.63
2022-12-15T09:32:49.583Z,96302.75
2022-12-15T09:33:53.433Z,96306.41
2022-12-15T09:34:57.181Z,96300.91
2022-12-15T09:35:59.001Z,96299.47
2022-12-15T09:37:00.546Z,96296.09
2022-12-15T09:38:02.127Z,96294.31
2022-12-15T09:39:03.769Z,96295.84
2022-12-15T09:40:06.652Z,96301.19
2022-12-15T09:41:15.273Z,96305.03
2022-12-15T09:42:26.744Z,96303.78
2022-12-15T09:43:38.048Z,96306.56
2022-12-15T09:44:43.599Z,96308.13
2022-12-15T09:45:52.980Z,96307.69
2022-12-15T09:46:57.506Z,96294.97
2022-12-15T09:48:04.907Z,96303.69
2022-12-15T09:49:18.545Z,96296.25
2022-12-15T09:50:27.903Z,96305.50
2022-12-15T09:51:39.155Z,96304.59
2022-12-15T09:52:54.839Z,96315.44
2022-12-15T09:53:57.005Z,96303.25
2022-12-15T09:55:01.735Z,96303.69
2022-12-15T09:56:08.242Z,96299.47
2022-12-15T09:57:36.073Z,96300.16
2022-12-15T09:58:50.610Z,96303.25
2022-12-15T09:59:55.286Z,96304.81
2022-12-15T10:01:01.670Z,96303.47
2022-12-15T10:02:22.037Z,96300.53
2022-12-15T10:03:52.893Z,96303.63
2022-12-15T10:05:15.773Z,96299.84
2022-12-15T10:06:22.077Z,96316.78
2022-12-15T10:07:34.760Z,96313.00
2022-12-15T10:08:54.653Z,96313.09
2022-12-15T10:09:57.545Z,96316.22
2022-12-15T10:11:02.090Z,96310.53
2022-12-15T10:12:11.220Z,96309.53
2022-12-15T10:13:23.505Z,96312.28
2022-12-15T10:14:37.703Z,96309.88
2022-12-15T10:15:50.162Z,96308.09
2022-12-15T10:17:21.551Z,96308.88
2022-12-15T10:18:28.641Z,96312.69
2022-12-15T10:19:52.092Z,96308.88
2022-12-15T10:20:55.071Z,96315.88
2022-12-15T10:21:58.273Z,96315.22
2022-12-15T10:23:12.503Z,96310.72
2022-12-15T10:24:44.874Z,96311.66
2022-12-15T10:25:51.565Z,96311.16
2022-12-15T10:27:06.012Z,96304.50
2022-12-15T10:28:16.882Z,96309.16
2022-12-15T10:29:43.768Z,96310.03
2022-12-15T10:31:06.924Z,96310.00
2022-12-15T10:32:20.822Z,96305.59
2022-12-15T10:33:30.822Z,96312.94
2022-12-15T10:34:38.041Z,96307.75
2022-12-15T10:35:44.185Z,96308.53
2022-12-15T10:36:51.370Z,96310.13
2022-12-15T10:37:57.562Z,96307.69
2022-12-15T10:38:59.105Z,96316.16
2022-12-15T10:40:00.627Z,96312.53
2022-12-15T10:41:08.472Z,96313.44
2022-12-15T10:42:25.062Z,96312.84
2022-12-15T10:43:36.601Z,96308.50
2022-12-15T10:44:41.446Z,96296.75
2022-12-15T10:45:43.445Z,96306.25
2022-12-15T10:46:46.360Z,96301.56
2022-12-15T10:47:59.083Z,96296.41
2022-12-15T10:49:21.985Z,96298.31
2022-12-15T10:50:25.543Z,96306.72
2022-12-15T10:51:51.604Z,96300.78
2022-12-15T10:52:53.152Z,96303.91
2022-12-15T10:54:03.356Z,96306.72
2022-12-15T10:55:37.320Z,96299.44
2022-12-15T10:58:21.261Z,96307.69
2022-12-15T10:59:34.944Z,96301.50
2022-12-15T11:00:36.927Z,96299.81
2022-12-15T11:01:38.677Z,96298.25
2022-12-15T11:02:42.158Z,96294.97
2022-12-15T11:03:44.583Z,96292.56
2022-12-15T11:05:15.846Z,96290.31
2022-12-15T11:06:29.565Z,96292.75
2022-12-15T11:07:40.348Z,96291.03
2022-12-15T11:08:43.346Z,96287.28
2022-12-15T11:09:48.442Z,96287.78
2022-12-15T11:11:30.940Z,96283.97
2022-12-15T11:12:51.150Z,96290.59
2022-12-15T11:14:07.133Z,96281.34
2022-12-15T11:15:23.765Z,96285.66
2022-12-15T11:16:25.272Z,96276.81
2022-12-15T11:17:40.596Z,96283.81
2022-12-15T11:18:53.868Z,96285.88
2022-12-15T11:20:03.578Z,96284.78
2022-12-15T11:21:26.528Z,96290.31
2022-12-15T11:22:42.104Z,96282.09
2022-12-15T11:24:25.926Z,96298.28
2022-12-15T11:25:47.017Z,96289.41
2022-12-15T11:26:56.502Z,96287.19
2022-12-15T11:28:02.542Z,96287.25
2022-12-15T11:29:21.242Z,96284.28
2022-12-15T11:30:26.499Z,96284.41
2022-12-15T11:31:40.284Z,96285.97
2022-12-15T11:32:47.233Z,96280.69
2022-12-15T11:33:55.058Z,96277.69
2022-12-15T11:34:56.927Z,96286.19
2022-12-15T11:36:30.603Z,96284.66
2022-12-15T11:37:45.587Z,96287.13
2022-12-15T11:38:52.739Z,96286.66
2022-12-15T11:40:06.290Z,96290.47
2022-12-15T11:41:30.816Z,96290.00
2022-12-15T11:42:51.062Z,96286.81
2022-12-15T11:44:13.911Z,96278.06
2022-12-15T11:45:27.101Z,96285.00
2022-12-15T11:46:41.231Z,96290.25
2022-12-15T11:47:51.507Z,96285.63
2022-12-15T11:49:21.152Z,96289.81
2022-12-15T11:50:26.683Z,96283.97
2022-12-15T11:51:37.453Z,96280.91
2022-12-15T11:53:01.268Z,96281.75
2022-12-15T11:54:19.215Z,96272.13
2022-12-15T11:55:41.074Z,96277.09
2022-12-15T11:56:45.445Z,96280.56
2022-12-15T11:57:50.564Z,96288.69
2022-12-15T11:59:13.836Z,96279.63
2022-12-15T12:00:20.245Z,96281.88
2022-12-15T12:01:57.025Z,96277.22
2022-12-15T12:03:22.031Z,96282.53
2022-12-15T12:04:37.828Z,96283.31
2022-12-15T12:05:46.701Z,96274.09
2022-12-15T12:06:58.552Z,96274.88
2022-12-15T12:08:11.579Z,96272.63
2022-12-15T12:09:31.073Z,96279.25
2022-12-15T12:11:06.563Z,96275.06
2022-12-15T12:12:12.063Z,96280.94
2022-12-15T12:13:50.322Z,96275.19
2022-12-15T12:15:13.119Z,96278.41
2022-12-15T12:16:35.079Z,96279.28
2022-12-15T12:17:53.110Z,96270.88
2022-12-15T12:19:04.457Z,96274.00
2022-12-15T12:20:17.691Z,96277.03
2022-12-15T12:21:29.614Z,96275.50
2022-12-15T12:22:37.763Z,96268.97
2022-12-15T12:23:56.213Z,96268.69
2022-12-15T12:25:12.423Z,96270.69
2022-12-15T12:26:23.896Z,96270.38
2022-12-15T12:27:28.550Z,96267.81
2022-12-15T12:28:44.942Z,96269.06
2022-12-15T12:30:04.280Z,96274.56
2022-12-15T12:31:17.516Z,96276.78
2022-12-15T12:32:50.509Z,96279.09
2022-12-15T12:33:56.717Z,96270.81
2022-12-15T12:35:30.598Z,96273.97
2022-12-15T12:36:28.823Z,96282.78
2022-12-15T12:37:42.174Z,96268.13
2022-12-15T12:38:57.392Z,96282.41
2022-12-15T12:40:05.265Z,96282.09
2022-12-15T12:41:16.386Z,96279.50
2022-12-15T12:42:57.681Z,96290.38
2022-12-15T12:44:09.571Z,96288.09
2022-12-15T12:45:13.020Z,96289.75
2022-12-15T12:46:21.660Z,96287.44
2022-12-15T12:47:38.531Z,96289.47
2022-12-15T12:48:51.343Z,96283.72
2022-12-15T12:49:59.094Z,96286.31
2022-12-15T12:51:28.335Z,96291.66
2022-12-15T12:52:32.918Z,96292.84
2022-12-15T12:53:35.123Z,96285.94
2022-12-15T12:54:36.993Z,96284.50
2022-12-15T12:55:42.744Z,96287.63
2022-12-15T12:56:45.592Z,96292.28
2022-12-15T12:57:52.726Z,96291.09
2022-12-15T12:58:54.282Z,96290.72
2022-12-15T13:00:03.497Z,96294.25
2022-12-15T13:01:11.114Z,96294.56
2022-12-15T13:02:15.825Z,96297.91
2022-12-15T13:03:21.509Z,96294.81
2022-12-15T13:04:29.240Z,96296.03
2022-12-15T13:05:38.290Z,96302.97
2022-12-15T13:06:39.779Z,96301.38
2022-12-15T13:07:41.747Z,96308.28
2022-12-15T13:08:53.373Z,96306.81
2022-12-15T13:10:18.447Z,96293.66
2022-12-15T13:11:53.679Z,96307.44
2022-12-15T13:12:59.702Z,96303.56
2022-12-15T13:14:02.348Z,96302.47
2022-12-15T13:15:13.065Z,96298.31
2022-12-15T13:16:27.694Z,96294.50
2022-12-15T13:17:41.482Z,96294.50
2022-12-15T13:19:04.976Z,96294.88
2022-12-15T13:20:17.835Z,96296.44
2022-12-15T13:21:41.716Z,96293.78
2022-12-15T13:22:43.412Z,96291.47
2022-12-15T13:23:46.110Z,96295.31
2022-12-15T13:24:52.196Z,96299.13
2022-12-15T13:25:56.711Z,96295.31
2022-12-15T13:27:26.575Z,96301.47
2022-12-15T13:28:55.446Z,96305.28
2022-12-15T13:29:57.087Z,96310.66
2022-12-15T13:31:23.123Z,96303.72
2022-12-15T13:32:40.139Z,96311.38
2022-12-15T13:33:51.026Z,96313.34